HB9EYW-6 Weather Reports


Display with metric or nautical units.
time (UTC)temp
F
wind
direction
speed
MPH
gust
MPH
rain 1hr
in
rain 24hr
in
rain mn
in
humidity
%
barometer
mb
20260831033003 65 153 0.0 2.0 0.00 0.26 0.22 93
20260831032503 66 163 0.0 3.0 0.00 0.26 0.22 94
20260831032003 66 144 0.0 3.0 0.00 0.26 0.22 94
20260831031503 66 135 0.0 2.0 0.00 0.26 0.22 94
20260831031003 66 0 0.0 0.0 0.00 0.26 0.22 94
20260831030503 66 135 0.0 2.0 0.00 0.26 0.22 94
20260831030003 66 135 0.0 2.0 0.00 0.26 0.22 94
20260831025503 66 135 1.0 2.0 0.00 0.26 0.22 94
20260831025003 66 0 0.0 0.0 0.00 0.26 0.22 94
20260831024503 66 0 0.0 0.0 0.00 0.26 0.22 94
20260831024003 66 0 0.0 0.0 0.00 0.26 0.22 94
20260831023503 66 225 0.0 2.0 0.00 0.26 0.22 94
20260831023003 66 189 0.0 2.0 0.00 0.26 0.22 95
20260831022503 66 155 1.0 2.0 0.00 0.26 0.22 95
20260831022003 66 135 0.0 2.0 0.00 0.26 0.22 95
20260831021503 66 0 0.0 0.0 0.00 0.26 0.22 95
20260831021003 66 0 0.0 0.0 0.00 0.26 0.22 94
20260831020503 66 360 0.0 1.0 0.00 0.26 0.22 94
20260831020003 66 360 0.0 1.0 0.00 0.26 0.22 94
20260831015503 66 360 0.0 1.0 0.00 0.26 0.22 94
20260831015003 66 360 0.0 3.0 0.00 0.26 0.22 94
20260831014503 66 360 0.0 3.0 0.00 0.26 0.22 94
20260831014003 66 360 0.0 2.0 0.00 0.26 0.22 94
20260831013503 66 360 0.0 2.0 0.00 0.26 0.22 94
20260831013003 66 360 0.0 2.0 0.00 0.26 0.22 94
20260831012503 66 351 0.0 2.0 0.00 0.26 0.22 93
20260831012003 66 200 0.0 2.0 0.00 0.26 0.22 93
20260831011503 66 180 0.0 1.0 0.00 0.26 0.22 93
20260831011003 66 180 0.0 1.0 0.00 0.26 0.22 93
20260831010503 66 186 0.0 2.0 0.00 0.26 0.22 93
20260831010003 66 184 0.0 2.0 0.00 0.26 0.22 93
20260831005503 66 183 1.0 2.0 0.00 0.26 0.22 93
20260831005003 66 184 0.0 2.0 0.00 0.26 0.22 93
20260831004503 66 180 0.0 2.0 0.00 0.26 0.22 93
20260831004003 66 180 0.0 2.0 0.00 0.26 0.22 93
20260831003503 67 180 0.0 2.0 0.01 0.26 0.22 93
20260831003003 67 180 0.0 1.0 0.01 0.26 0.22 93
20260831002503 67 180 0.0 2.0 0.01 0.26 0.22 92
20260831002003 67 180 0.0 2.0 0.01 0.26 0.22 92
20260831001503 67 0 0.0 0.0 0.02 0.26 0.22 92
20260831001003 67 0 0.0 0.0 0.02 0.26 0.22 92
20260831000503 67 180 0.0 2.0 0.07 0.26 0.22 91
20260831000003 67 180 0.0 2.0 0.07 0.26 0.22 91
20260830235503 66 180 0.0 2.0 0.09 0.26 0.22 91
20260830235003 66 180 0.0 2.0 0.09 0.26 0.22 91
20260830234503 66 180 0.0 1.0 0.09 0.26 0.22 90
20260830234003 66 195 0.0 1.0 0.09 0.26 0.22 89
20260830233503 66 214 0.0 1.0 0.08 0.25 0.21 89
20260830233003 66 168 0.0 1.0 0.08 0.25 0.21 89
20260830232503 66 209 0.0 4.0 0.08 0.25 0.21 88
20260830232003 66 227 0.0 4.0 0.08 0.25 0.21 88
20260830231503 66 268 0.0 4.0 0.07 0.24 0.20 87
20260830231003 66 275 1.0 4.0 0.08 0.24 0.20 87
20260830230503 67 275 3.0 4.0 0.15 0.19 0.15 86
20260830230003 67 280 3.0 4.0 0.15 0.19 0.15 86
20260830225503 67 251 0.0 2.0 0.17 0.17 0.13 86
20260830225003 67 253 0.0 2.0 0.17 0.17 0.13 85
20260830224503 67 207 0.0 2.0 0.17 0.17 0.13 85
20260830224003 67 180 0.0 2.0 0.17 0.17 0.13 84
20260830223503 67 196 0.0 2.0 0.17 0.17 0.13 83
20260830223003 67 247 0.0 2.0 0.17 0.17 0.13 83
20260830222503 67 244 0.0 4.0 0.17 0.17 0.13 82
20260830222003 67 244 0.0 5.0 0.17 0.17 0.13 80
20260830221503 67 285 2.0 6.0 0.17 0.17 0.13 78
20260830221003 68 313 2.0 6.0 0.15 0.15 0.12 74
20260830220503 71 298 3.0 11.0 0.04 0.04 0.00 61
20260830220003 71 270 3.0 12.0 0.04 0.04 0.00 61
20260830215503 72 250 6.0 12.0 0.00 0.00 0.00 52
20260830215003 72 244 2.0 4.0 0.00 0.00 0.00 54
20260830214503 72 181 0.0 2.0 0.00 0.00 0.00 52
20260830214003 72 180 0.0 2.0 0.00 0.00 0.00 51
20260830213503 73 180 0.0 1.0 0.00 0.00 0.00 51
20260830213003 73 180 0.0 2.0 0.00 0.00 0.00 51
20260830212503 73 187 0.0 2.0 0.00 0.00 0.00 51
20260830212003 73 185 0.0 2.0 0.00 0.00 0.00 51
20260830211503 73 180 0.0 2.0 0.00 0.00 0.00 50
20260830211003 73 180 0.0 2.0 0.00 0.00 0.00 49
20260830210503 73 180 0.0 1.0 0.00 0.00 0.00 46
20260830210003 73 140 0.0 2.0 0.00 0.00 0.00 46
20260830205503 74 153 0.0 2.0 0.00 0.00 0.00 45
20260830205003 74 180 0.0 1.0 0.00 0.00 0.00 45
20260830204503 74 180 0.0 1.0 0.00 0.00 0.00 44
20260830204003 74 180 0.0 1.0 0.00 0.00 0.00 44
20260830203503 74 0 0.0 0.0 0.00 0.00 0.00 43
20260830203003 75 180 0.0 1.0 0.00 0.00 0.00 43
20260830202503 75 180 0.0 2.0 0.00 0.00 0.00 43
20260830202003 75 180 0.0 2.0 0.00 0.00 0.00 42
20260830201503 75 180 0.0 2.0 0.00 0.00 0.00 42
20260830201003 75 180 0.0 2.0 0.00 0.00 0.00 41
20260830200503 76 0 0.0 0.0 0.00 0.00 0.00 40
20260830200003 76 180 0.0 2.0 0.00 0.00 0.00 40
20260830195503 76 180 0.0 2.0 0.00 0.00 0.00 39
20260830195003 76 180 1.0 2.0 0.00 0.00 0.00 39
20260830194503 77 180 0.0 2.0 0.00 0.00 0.00 38
20260830194003 77 180 0.0 1.0 0.00 0.00 0.00 37
20260830193503 77 180 0.0 2.0 0.00 0.00 0.00 37
20260830193003 78 180 0.0 2.0 0.00 0.00 0.00 36
20260830192503 78 180 0.0 2.0 0.00 0.00 0.00 35
20260830192003 78 180 1.0 2.0 0.00 0.00 0.00 35
20260830191503 79 0 0.0 0.0 0.00 0.00 0.00 34
20260830191003 79 0 0.0 0.0 0.00 0.00 0.00 33
20260830190503 79 180 0.0 1.0 0.00 0.00 0.00 32
20260830190003 79 180 0.0 2.0 0.00 0.00 0.00 32
20260830185503 79 180 0.0 2.0 0.00 0.00 0.00 31
20260830185003 79 270 0.0 2.0 0.00 0.00 0.00 31
20260830184503 79 270 0.0 2.0 0.00 0.00 0.00 30
20260830184003 79 270 0.0 2.0 0.00 0.00 0.00 29
20260830183503 80 270 0.0 2.0 0.00 0.00 0.00 29
20260830183003 80 266 0.0 2.0 0.00 0.00 0.00 29
20260830182503 80 256 0.0 2.0 0.00 0.00 0.00 28
20260830182003 80 254 0.0 2.0 0.00 0.00 0.00 28
20260830181503 80 270 0.0 2.0 0.00 0.00 0.00 28
20260830181003 80 270 0.0 2.0 0.00 0.00 0.00 28
20260830180503 80 266 0.0 2.0 0.00 0.00 0.00 27
20260830180003 80 263 0.0 4.0 0.00 0.00 0.00 27
20260830175503 81 260 2.0 4.0 0.00 0.00 0.00 26
20260830175003 81 263 1.0 3.0 0.00 0.00 0.00 26
20260830174503 81 262 0.0 3.0 0.00 0.00 0.00 25
20260830174003 82 277 0.0 2.0 0.00 0.00 0.00 25
20260830173503 82 285 1.0 2.0 0.00 0.00 0.00 25
20260830173003 82 275 0.0 3.0 0.00 0.00 0.00 25
20260830172503 82 278 0.0 3.0 0.00 0.00 0.00 24
20260830172003 83 267 1.0 2.0 0.00 0.00 0.00 23
20260830171503 83 229 1.0 2.0 0.00 0.00 0.00 23
20260830171003 84 192 1.0 2.0 0.00 0.00 0.00 22
20260830170503 84 251 0.0 2.0 0.00 0.00 0.00 22
20260830170003 84 263 0.0 2.0 0.00 0.00 0.00 22
20260830165503 84 231 0.0 3.0 0.00 0.00 0.00 22
20260830165003 84 280 0.0 4.0 0.00 0.00 0.00 21
20260830164503 85 287 2.0 4.0 0.00 0.00 0.00 20
20260830164003 85 272 0.0 4.0 0.00 0.00 0.00 20
20260830163503 86 275 0.0 4.0 0.00 0.00 0.00 19
20260830163003 87 271 1.0 4.0 0.00 0.00 0.00 18
20260830162503 87 273 1.0 4.0 0.00 0.00 0.00 17
20260830162003 88 262 2.0 4.0 0.00 0.00 0.00 16
20260830161503 90 317 0.0 4.0 0.00 0.00 0.00 15
20260830161004 90 17 0.0 4.0 0.00 0.00 0.00 15
20260830160503 90 9 2.0 4.0 0.00 0.00 0.00 15
20260830160003 90 261 2.0 4.0 0.00 0.00 0.00 15
20260830155503 90 268 0.0 4.0 0.00 0.00 0.00 16
20260830155003 89 294 1.0 4.0 0.00 0.00 0.00 17
20260830154503 89 320 1.0 4.0 0.00 0.00 0.00 16
20260830154003 90 256 0.0 4.0 0.00 0.00 0.00 15
20260830153503 90 235 1.0 4.0 0.00 0.00 0.00 14
20260830153003 91 229 2.0 5.0 0.00 0.00 0.00 15
20260830152503 91 210 2.0 5.0 0.00 0.00 0.00 15
20260830152003 90 221 0.0 5.0 0.00 0.00 0.00 16
20260830151503 90 237 2.0 6.0 0.00 0.00 0.00 15
20260830151003 90 237 0.0 6.0 0.00 0.00 0.00 15
20260830150503 90 235 0.0 4.0 0.00 0.00 0.00 16
20260830150003 90 265 0.0 4.0 0.00 0.00 0.00 16
20260830145503 90 303 1.0 4.0 0.00 0.00 0.00 16
20260830145003 90 324 1.0 5.0 0.00 0.00 0.00 16
20260830144503 89 304 0.0 5.0 0.00 0.00 0.00 18
20260830144003 89 259 3.0 6.0 0.00 0.00 0.00 17
20260830143503 89 251 0.0 6.0 0.00 0.00 0.00 16
20260830143003 89 268 2.0 4.0 0.00 0.00 0.00 18
20260830142503 89 298 1.0 5.0 0.00 0.00 0.00 19
20260830142003 88 245 2.0 5.0 0.00 0.00 0.00 18
20260830141503 89 254 2.0 4.0 0.00 0.00 0.00 18
20260830141003 89 267 2.0 4.0 0.00 0.00 0.00 17
20260830140503 89 260 1.0 6.0 0.00 0.00 0.00 19
20260830140003 89 244 1.0 8.0 0.00 0.00 0.00 19
20260830135503 89 242 2.0 8.0 0.00 0.00 0.00 20
20260830135003 89 233 2.0 4.0 0.00 0.00 0.00 20
20260830134503 88 250 1.0 6.0 0.00 0.00 0.00 21
20260830134003 87 262 0.0 8.0 0.00 0.00 0.00 22
20260830133503 87 257 4.0 8.0 0.00 0.00 0.00 21
20260830133003 88 268 1.0 8.0 0.00 0.00 0.00 21
20260830132503 88 298 2.0 4.0 0.00 0.00 0.00 22
20260830132003 87 267 1.0 5.0 0.00 0.00 0.00 22
20260830131503 87 280 1.0 5.0 0.00 0.00 0.00 23
20260830131003 87 312 2.0 4.0 0.00 0.00 0.00 22
20260830130503 87 300 1.0 5.0 0.00 0.00 0.00 23
20260830130003 87 252 1.0 5.0 0.00 0.00 0.00 23
20260830125503 87 222 2.0 8.0 0.00 0.00 0.00 22
20260830125003 88 237 1.0 8.0 0.00 0.00 0.00 22
20260830124503 88 292 1.0 7.0 0.00 0.00 0.00 23
20260830124003 88 304 2.0 7.0 0.00 0.00 0.00 22
20260830123503 88 312 1.0 7.0 0.00 0.00 0.00 22
20260830123003 88 251 2.0 4.0 0.00 0.00 0.00 21
20260830122503 87 212 1.0 6.0 0.00 0.00 0.00 22
20260830122003 87 145 1.0 6.0 0.00 0.00 0.00 22
20260830121503 86 240 1.0 6.0 0.00 0.00 0.00 25
20260830121003 85 267 2.0 6.0 0.00 0.00 0.00 24
20260830120503 87 283 2.0 5.0 0.00 0.00 0.00 25
20260830120003 87 305 2.0 5.0 0.00 0.00 0.00 25
20260830115503 87 294 3.0 6.0 0.00 0.00 0.00 23
20260830115003 86 307 3.0 6.0 0.00 0.00 0.00 24
20260830114503 86 264 1.0 5.0 0.00 0.00 0.00 24
20260830114003 86 137 2.0 6.0 0.00 0.00 0.00 24
20260830113503 87 19 2.0 6.0 0.00 0.00 0.00 24
20260830113003 87 339 0.0 6.0 0.00 0.00 0.00 25
20260830112503 86 5 1.0 6.0 0.00 0.00 0.00 25
20260830112003 87 270 2.0 5.0 0.00 0.00 0.00 24
20260830111503 86 258 0.0 4.0 0.00 0.00 0.00 27
20260830111003 86 258 2.0 4.0 0.00 0.00 0.00 25
20260830110503 84 265 0.0 4.0 0.00 0.00 0.00 29
20260830110004 84 238 0.0 4.0 0.00 0.00 0.00 29
20260830105503 83 236 0.0 5.0 0.00 0.00 0.00 29
20260830105003 83 286 1.0 6.0 0.00 0.00 0.00 29
20260830104503 83 306 2.0 7.0 0.00 0.00 0.00 28
20260830104003 83 257 3.0 7.0 0.00 0.00 0.00 28
20260830103503 82 244 0.0 4.0 0.00 0.00 0.00 31
20260830103003 82 238 1.0 4.0 0.00 0.00 0.00 31
20260830102503 82 243 1.0 4.0 0.00 0.00 0.00 34
20260830102003 80 248 2.0 4.0 0.00 0.00 0.00 35
20260830101503 78 197 0.0 3.0 0.00 0.00 0.00 38
20260830101003 78 158 0.0 3.0 0.00 0.00 0.00 38
20260830100503 77 149 0.0 3.0 0.00 0.00 0.00 39
20260830100003 77 290 0.0 4.0 0.00 0.00 0.00 39
20260830095503 77 302 1.0 4.0 0.00 0.00 0.00 38
20260830095003 77 289 3.0 4.0 0.00 0.00 0.00 38
20260830094503 77 262 1.0 4.0 0.00 0.00 0.00 40
20260830094003 76 274 0.0 4.0 0.00 0.00 0.00 40
20260830093503 76 262 2.0 3.0 0.00 0.00 0.00 39
20260830093003 77 255 2.0 3.0 0.00 0.00 0.00 39
20260830092503 77 262 0.0 3.0 0.00 0.00 0.00 40
20260830092003 77 243 2.0 3.0 0.00 0.00 0.00 39
20260830091503 76 221 0.0 3.0 0.00 0.00 0.00 41
20260830091003 76 141 0.0 2.0 0.00 0.00 0.00 41
20260830090503 76 173 0.0 2.0 0.00 0.00 0.00 41
20260830090004 76 213 0.0 2.0 0.00 0.00 0.00 41
20260830085503 76 130 0.0 5.0 0.00 0.00 0.00 40
20260830085003 76 133 0.0 5.0 0.00 0.00 0.00 40
20260830084503 76 165 1.0 2.0 0.00 0.00 0.00 40
20260830084003 76 205 1.0 3.0 0.00 0.00 0.00 42
20260830083503 76 200 1.0 3.0 0.00 0.00 0.00 42
20260830083003 75 199 0.0 3.0 0.00 0.00 0.00 43
20260830082503 75 222 0.0 2.0 0.00 0.00 0.00 45
20260830082003 74 197 0.0 2.0 0.00 0.00 0.00 46
20260830081503 74 172 0.0 2.0 0.00 0.00 0.00 46
20260830081003 74 171 0.0 2.0 0.00 0.00 0.00 46
20260830080503 73 180 0.0 1.0 0.00 0.00 0.00 47
20260830080003 73 177 0.0 3.0 0.00 0.00 0.00 47
20260830075503 73 175 0.0 3.0 0.00 0.00 0.00 47
20260830075003 73 186 1.0 2.0 0.00 0.00 0.00 47
20260830074503 73 194 1.0 2.0 0.00 0.00 0.00 48
20260830074003 73 184 0.0 4.0 0.00 0.00 0.00 48
20260830073503 72 183 1.0 4.0 0.00 0.00 0.00 49
20260830073003 72 188 1.0 2.0 0.00 0.00 0.00 50
20260830072503 72 191 0.0 2.0 0.00 0.00 0.00 51
20260830072003 72 184 0.0 3.0 0.00 0.00 0.00 54
20260830071503 70 180 0.0 4.0 0.00 0.00 0.00 55
20260830071003 70 180 0.0 4.0 0.00 0.00 0.00 55
20260830070503 69 180 2.0 4.0 0.00 0.00 0.00 56
20260830070003 69 180 2.0 4.0 0.00 0.00 0.00 56
20260830065503 69 177 0.0 3.0 0.00 0.00 0.00 56
20260830065003 69 177 1.0 3.0 0.00 0.00 0.00 56
20260830064503 69 175 1.0 2.0 0.00 0.00 0.00 57
20260830064003 69 175 0.0 2.0 0.00 0.00 0.00 57
20260830063503 69 183 1.0 4.0 0.00 0.00 0.00 56
20260830063003 69 181 0.0 4.0 0.00 0.00 0.00 56
20260830062503 69 177 1.0 4.0 0.00 0.00 0.00 56
20260830062003 69 176 2.0 4.0 0.00 0.00 0.00 57
20260830061503 68 141 0.0 2.0 0.00 0.00 0.00 58
20260830061003 68 131 0.0 2.0 0.00 0.00 0.00 58
20260830060503 68 126 0.0 3.0 0.00 0.00 0.00 58
20260830060003 68 92 0.0 3.0 0.00 0.00 0.00 58
20260830055503 68 87 0.0 2.0 0.00 0.00 0.00 58
20260830055003 67 114 0.0 2.0 0.00 0.00 0.00 59
20260830054503 67 127 0.0 2.0 0.00 0.00 0.00 59
20260830054003 67 139 1.0 2.0 0.00 0.00 0.00 59
20260830053503 67 140 0.0 2.0 0.00 0.00 0.00 59
20260830053003 67 124 0.0 2.0 0.00 0.00 0.00 59
20260830052503 67 130 0.0 2.0 0.00 0.00 0.00 59
20260830052003 67 135 0.0 2.0 0.00 0.00 0.00 60
20260830051503 67 135 0.0 2.0 0.00 0.00 0.00 60
20260830051003 67 135 0.0 2.0 0.00 0.00 0.00 60
20260830050503 67 142 1.0 2.0 0.00 0.00 0.00 60
20260830050003 67 154 1.0 2.0 0.00 0.00 0.00 60
20260830045503 67 151 0.0 2.0 0.00 0.00 0.00 60
20260830045003 67 158 0.0 2.0 0.00 0.00 0.00 60
20260830044503 67 144 0.0 2.0 0.00 0.00 0.00 60
20260830044003 67 147 1.0 2.0 0.00 0.00 0.00 60
20260830043503 67 168 0.0 2.0 0.00 0.00 0.00 60
20260830043003 67 149 1.0 2.0 0.00 0.00 0.00 60
20260830042503 67 137 0.0 2.0 0.00 0.00 0.00 60
20260830042003 67 139 0.0 2.0 0.00 0.00 0.00 60
20260830041503 67 131 0.0 2.0 0.00 0.00 0.00 60
20260830041003 67 135 0.0 2.0 0.00 0.00 0.00 60
20260830040503 67 128 0.0 2.0 0.00 0.00 0.00 60
20260830040003 67 134 0.0 3.0 0.00 0.00 0.00 60
20260830035503 67 138 1.0 3.0 0.00 0.00 0.00 60
20260830035003 67 136 0.0 4.0 0.00 0.00 0.00 60
20260830034503 67 136 2.0 4.0 0.00 0.00 0.00 60
20260830034003 67 132 0.0 2.0 0.00 0.00 0.00 60
20260830033503 67 132 0.0 2.0 0.00 0.00 0.00 60